メインページ
METAR-TAF:

METAR-TAF

空港 :

ドバイ国際空港

ドバイ, アラブ首長国連邦

緯度: 25-15-10N, 経度: 055-21-52E, 海抜: 8m

現時点の気象観測

当レポートは23分前の23:00(UTC)に作成
の風 4kt
気温 32°C
湿度 67%
気圧 1006 hPa
視程10km以上
1,500メートル以下は雲なし、積乱雲なし

METAR: OMDB 242300Z 19004KT CAVOK 32/25 Q1006 NOSIG

時間: 03:23 (23:23 UTC)

予報

当レポートは6時間30分前の16:53(UTC)に作成
予報は24日の 18時(UTC)から 26日の 00時(UTC)まで有効
南東の風 5kt
視程10km以上
1,500メートル以下は雲なし、積乱雲なし
25日の 03時(UTC)から 25日の 05時(UTC)まで徐々に
南/南西の風 13kt
確率 30% :
25日の 04時(UTC)から 25日の 09時(UTC)まで一時的に
視程: 4000m
広範な塵
25日の 07時(UTC)から 25日の 09時(UTC)まで徐々に
西の風 15kt
25日の 15時(UTC)から 25日の 17時(UTC)まで徐々に
の風 5kt

TAF: OMDB 241653Z 2418/2600 14005KT CAVOK BECMG 2503/2505 20013KT PROB30 TEMPO 2504/2509 4000 DU BECMG 2507/2509 27015KT BECMG 2515/2517 19005KT

4,000以上の空港の気象観測と天気予報(METAR報とTAF報)

利用可能な観測所は地図上に黄色い丸と赤い丸で示す。

丸の上にカーソルを重ねると観測所名を参照できる。

次にクリックすると気象観測と天気予報を参照できる。

マップの切り替え:黒色「×」印の緑ボタンをクリックして拡大、「-」印の緑ボタンをクリックして縮小、緑色の三角印をクリックして隣りの地図に切り替え


METAR-TAF: